createdAt,value
2022-09-02T00:02:18.983Z,18.00
2022-09-02T00:12:21.127Z,17.90
2022-09-02T00:22:24.483Z,17.80
2022-09-02T00:32:26.489Z,17.80
2022-09-02T00:42:29.943Z,17.80
2022-09-02T00:52:36.133Z,17.60
2022-09-02T01:02:41.417Z,17.60
2022-09-02T01:12:44.024Z,17.60
2022-09-02T01:22:47.891Z,17.50
2022-09-02T01:32:50.196Z,17.50
2022-09-02T01:42:56.834Z,17.50
2022-09-02T01:52:59.791Z,17.40
2022-09-02T02:03:03.995Z,17.40
2022-09-02T02:13:06.254Z,17.30
2022-09-02T02:23:09.598Z,17.30
2022-09-02T02:33:11.557Z,17.20
2022-09-02T02:43:15.039Z,17.20
2022-09-02T02:53:17.103Z,17.20
2022-09-02T03:03:20.473Z,17.10
2022-09-02T03:13:23.388Z,17.10
2022-09-02T03:23:26.951Z,17.10
2022-09-02T03:33:28.936Z,17.10
2022-09-02T03:43:32.371Z,17.00
2022-09-02T03:53:34.738Z,17.00
2022-09-02T04:03:38.071Z,17.00
2022-09-02T04:13:40.642Z,17.00
2022-09-02T04:23:44.242Z,17.00
2022-09-02T04:33:46.951Z,17.00
2022-09-02T04:43:50.680Z,16.90
2022-09-02T04:53:54.141Z,16.90
2022-09-02T05:03:57.871Z,16.90
2022-09-02T05:14:02.328Z,16.80
2022-09-02T05:24:05.998Z,16.80
2022-09-02T05:34:08.373Z,16.80
2022-09-02T05:44:12.037Z,16.90
2022-09-02T05:54:17.553Z,16.80
2022-09-02T06:04:21.450Z,16.90
2022-09-02T06:14:24.854Z,17.00
2022-09-02T06:24:29.545Z,17.00
2022-09-02T06:34:32.117Z,17.10
2022-09-02T06:44:35.523Z,17.20
2022-09-02T06:54:38.138Z,17.30
2022-09-02T07:04:41.940Z,17.50
2022-09-02T07:14:44.503Z,17.60
2022-09-02T07:24:47.884Z,18.00
2022-09-02T07:34:49.830Z,18.50
2022-09-02T07:44:53.261Z,19.00
2022-09-02T07:54:55.289Z,19.40
2022-09-02T08:04:58.591Z,19.60
2022-09-02T08:15:00.542Z,19.80
2022-09-02T08:25:04.393Z,20.00
2022-09-02T08:35:08.300Z,20.40
2022-09-02T08:45:18.544Z,20.60
2022-09-02T08:55:28.664Z,20.70
2022-09-02T09:05:40.817Z,20.60
2022-09-02T09:15:48.927Z,20.80
2022-09-02T09:25:56.076Z,21.40
2022-09-02T09:46:26.827Z,22.20
2022-09-02T09:56:37.386Z,22.30
2022-09-02T10:06:43.402Z,22.30
2022-09-02T10:16:54.907Z,22.70
2022-09-02T10:27:00.002Z,23.00
2022-09-02T10:37:13.418Z,23.50
2022-09-02T10:47:30.119Z,23.60
2022-09-02T10:57:40.953Z,23.50
2022-09-02T11:07:50.671Z,24.00
2022-09-02T11:18:00.505Z,24.00
2022-09-02T11:28:19.467Z,24.10
2022-09-02T11:38:33.425Z,24.30
2022-09-02T11:49:03.889Z,24.40
2022-09-02T11:59:06.878Z,25.00
2022-09-02T12:09:10.970Z,24.50
2022-09-02T12:19:27.725Z,24.00
2022-09-02T12:29:33.632Z,24.00
2022-09-02T12:39:58.615Z,23.90
2022-09-02T12:50:06.060Z,23.60
2022-09-02T13:00:12.619Z,23.50
2022-09-02T13:10:50.156Z,23.40
2022-09-02T13:21:17.991Z,23.30
2022-09-02T13:31:22.271Z,23.30
2022-09-02T13:41:32.688Z,23.00
2022-09-02T13:51:36.244Z,22.90
2022-09-02T14:01:39.037Z,22.80
2022-09-02T14:11:45.349Z,22.70
2022-09-02T14:21:49.150Z,22.50
2022-09-02T14:32:10.688Z,22.50
2022-09-02T14:42:12.706Z,22.20
2022-09-02T14:52:21.180Z,22.00
2022-09-02T15:02:24.214Z,21.80
2022-09-02T15:12:30.639Z,22.00
2022-09-02T15:22:32.677Z,21.70
2022-09-02T15:32:36.285Z,21.70
2022-09-02T15:42:39.077Z,21.80
2022-09-02T15:52:42.535Z,21.90
2022-09-02T16:02:44.586Z,21.90
2022-09-02T16:12:48.013Z,22.10
2022-09-02T16:22:49.985Z,22.10
2022-09-02T16:32:53.329Z,22.40
2022-09-02T16:42:55.326Z,22.50
2022-09-02T16:52:58.960Z,22.40
2022-09-02T17:03:00.902Z,22.20
2022-09-02T17:13:04.307Z,21.90
2022-09-02T17:23:06.317Z,21.70
2022-09-02T17:33:09.639Z,21.40
2022-09-02T17:43:11.592Z,21.40
2022-09-02T17:53:14.926Z,21.40
2022-09-02T18:03:41.085Z,21.40
2022-09-02T18:14:02.534Z,21.20
2022-09-02T18:24:12.535Z,21.00
2022-09-02T18:34:32.001Z,20.80
2022-09-02T18:44:40.874Z,20.50
2022-09-02T18:54:49.189Z,20.30
2022-09-02T19:04:51.315Z,20.30
2022-09-02T19:15:20.923Z,20.20
2022-09-02T19:25:25.348Z,20.10
2022-09-02T19:36:02.522Z,19.90
2022-09-02T19:56:36.748Z,19.60
2022-09-02T20:06:38.924Z,19.60
2022-09-02T20:16:42.276Z,19.40
2022-09-02T20:26:52.146Z,19.30
2022-09-02T20:47:44.862Z,19.00
2022-09-02T20:58:00.295Z,19.00
2022-09-02T21:08:07.305Z,19.00
2022-09-02T21:18:16.367Z,18.90
2022-09-02T21:28:20.351Z,18.80
2022-09-02T21:38:31.008Z,18.70
2022-09-02T21:48:41.666Z,18.60
2022-09-02T21:59:09.461Z,18.40
2022-09-02T22:09:15.439Z,18.30
2022-09-02T22:19:19.670Z,18.20
2022-09-02T22:29:32.025Z,18.10
2022-09-02T22:39:47.755Z,18.00
2022-09-02T22:49:53.735Z,17.90
2022-09-02T23:00:02.577Z,17.70
2022-09-02T23:10:17.793Z,17.50
2022-09-02T23:20:27.243Z,17.40
2022-09-02T23:30:29.406Z,17.30
2022-09-02T23:40:41.127Z,17.00
2022-09-02T23:50:53.473Z,16.90
